Time;durP1;ratioP1;P1;durP2;ratioP2;P2;SDS_P1;SDS_P2;PMS_P1;PMS_P2;Temp;Humidity;BMP_temperature;BMP_pressure;BME280_temperature;BME280_humidity;BME280_pressure;Samples;Min_cycle;Max_cycle;Signal;HPM_P1;HPM_P2
2022/10/19 00:02:13;;;;;;;30.55;17.50;;;;;;;10.67;100.00;97652.41;10571496;28;20611;-58
2022/10/19 00:07:13;;;;;;;31.85;18.63;;;;;;;10.69;100.00;97654.91;10570959;28;20202;-59
2022/10/19 00:12:13;;;;;;;30.98;17.67;;;;;;;10.70;100.00;97652.13;10571119;28;20189;-60
2022/10/19 00:17:14;;;;;;;27.70;16.50;;;;;;;10.68;100.00;97661.09;10568985;28;20285;-57
2022/10/19 00:22:14;;;;;;;30.52;17.13;;;;;;;10.75;100.00;97661.38;10577366;28;20192;-55
2022/10/19 00:27:15;;;;;;;37.80;18.05;;;;;;;10.67;100.00;97652.41;10578152;28;20702;-58
2022/10/19 00:32:16;;;;;;;32.22;16.92;;;;;;;10.68;100.00;97654.03;10577799;28;20239;-56
2022/10/19 00:37:16;;;;;;;34.67;17.98;;;;;;;10.79;100.00;97660.97;10577814;28;20274;-59
2022/10/19 00:42:16;;;;;;;37.30;16.83;;;;;;;10.74;100.00;97638.75;10577320;28;20198;-57
2022/10/19 00:47:19;;;;;;;37.10;16.85;;;;;;;10.72;100.00;97633.66;10577749;28;20688;-59
2022/10/19 00:52:21;;;;;;;32.47;18.17;;;;;;;10.67;100.00;97628.81;10576648;28;20642;-58
2022/10/19 00:57:21;;;;;;;30.73;16.98;;;;;;;10.61;100.00;97639.84;10576938;28;20313;-58
2022/10/19 01:02:22;;;;;;;27.67;15.95;;;;;;;10.61;100.00;97637.22;10576017;28;20185;-58
2022/10/19 01:07:23;;;;;;;25.42;14.80;;;;;;;10.45;100.00;97624.59;10576260;28;20289;-60
2022/10/19 01:12:56;;;;;;;26.48;13.82;;;;;;;10.41;100.00;97611.91;10576440;28;20186;-60
2022/10/19 01:18:13;;;;;;;26.40;14.57;;;;;;;10.36;100.00;97601.84;10574406;28;20245;-60
2022/10/19 01:23:52;;;;;;;22.88;12.82;;;;;;;10.28;100.00;97589.38;10576009;28;20186;-59
2022/10/19 01:29:21;;;;;;;21.17;12.73;;;;;;;9.94;100.00;97568.72;10574792;28;20202;-60
2022/10/19 01:34:26;;;;;;;25.65;11.13;;;;;;;9.53;100.00;97567.81;10574540;28;20222;-59
2022/10/19 01:39:58;;;;;;;22.73;12.55;;;;;;;9.29;100.00;97581.13;10573418;28;20212;-59
2022/10/19 01:45:12;;;;;;;24.10;12.03;;;;;;;8.98;100.00;97585.47;10573624;28;20225;-60
2022/10/19 01:50:20;;;;;;;21.27;11.50;;;;;;;8.79;100.00;97596.53;10574545;28;20277;-57
2022/10/19 01:55:21;;;;;;;23.63;12.17;;;;;;;8.58;100.00;97592.09;10573652;28;20670;-58
2022/10/19 02:00:22;;;;;;;30.00;13.70;;;;;;;8.71;100.00;97599.78;10572925;28;20546;-57
2022/10/19 02:05:27;;;;;;;29.93;11.50;;;;;;;8.63;100.00;97602.19;10572689;28;20293;-58
2022/10/19 02:10:28;;;;;;;26.27;12.43;;;;;;;8.51;100.00;97602.19;10572908;28;20572;-57
2022/10/19 02:15:29;;;;;;;30.33;14.13;;;;;;;8.46;100.00;97600.91;10573507;28;20308;-57
2022/10/19 02:20:30;;;;;;;22.40;11.47;;;;;;;8.50;100.00;97615.38;10571248;28;20202;-57
2022/10/19 02:25:31;;;;;;;27.63;12.27;;;;;;;8.56;100.00;97620.94;10573816;28;20213;-56
2022/10/19 02:30:31;;;;;;;19.60;11.83;;;;;;;8.55;100.00;97602.78;10571774;28;20197;-54
2022/10/19 02:35:32;;;;;;;24.43;10.87;;;;;;;8.84;100.00;97610.91;10572980;28;20216;-58
2022/10/19 02:40:36;;;;;;;23.20;12.27;;;;;;;8.91;100.00;97609.47;10572761;28;20820;-58
2022/10/19 02:45:42;;;;;;;21.10;11.80;;;;;;;8.92;100.00;97605.06;10571237;28;20748;-57
2022/10/19 02:50:44;;;;;;;19.47;11.13;;;;;;;8.99;100.00;97601.00;10571838;28;20182;-55
2022/10/19 02:55:46;;;;;;;23.00;11.07;;;;;;;8.92;100.00;97592.81;10570993;28;20248;-57
2022/10/19 03:00:47;;;;;;;21.17;10.17;;;;;;;8.91;100.00;97606.84;10572781;28;20190;-59
2022/10/19 03:05:47;;;;;;;26.17;11.47;;;;;;;8.92;100.00;97599.84;10541479;28;20526;-58
2022/10/19 03:10:47;;;;;;;18.93;9.07;;;;;;;8.98;100.00;97588.06;10530188;28;20197;-56
2022/10/19 03:15:48;;;;;;;22.97;9.30;;;;;;;8.93;100.00;97583.22;10529894;28;20240;-56
2022/10/19 03:20:48;;;;;;;19.17;8.60;;;;;;;8.96;100.00;97574.28;10529072;28;20198;-58
2022/10/19 03:25:49;;;;;;;19.13;7.60;;;;;;;8.88;100.00;97570.53;10529839;28;20711;-56
2022/10/19 03:30:50;;;;;;;16.73;7.97;;;;;;;8.85;100.00;97562.94;10529915;28;20198;-55
2022/10/19 03:36:13;;;;;;;19.67;8.43;;;;;;;8.68;100.00;97553.00;10571129;28;20691;-57
2022/10/19 03:41:14;;;;;;;21.23;8.80;;;;;;;8.66;100.00;97549.69;10571656;28;20193;-56
2022/10/19 03:46:14;;;;;;;19.40;9.27;;;;;;;8.50;100.00;97563.13;10571878;28;20209;-58
2022/10/19 03:51:17;;;;;;;24.50;8.97;;;;;;;8.50;100.00;97568.34;10572085;28;20194;-58
2022/10/19 03:56:19;;;;;;;14.63;8.73;;;;;;;8.54;100.00;97581.03;10578961;28;20245;-59
2022/10/19 04:01:25;;;;;;;19.30;9.13;;;;;;;8.59;100.00;97582.47;10579928;28;20192;-57
2022/10/19 04:06:30;;;;;;;16.87;10.13;;;;;;;8.61;100.00;97591.03;10578887;28;20578;-58
2022/10/19 04:11:32;;;;;;;18.97;9.90;;;;;;;8.64;100.00;97598.63;10578962;28;20271;-53
2022/10/19 04:16:33;;;;;;;25.77;10.00;;;;;;;8.70;100.00;97591.13;10578671;28;20226;-54
2022/10/19 04:21:36;;;;;;;26.90;10.97;;;;;;;8.62;100.00;97592.69;10542833;22;20731;-60
2022/10/19 04:26:45;;;;;;;20.57;11.30;;;;;;;8.79;100.00;97596.53;10374123;28;20289;-60
2022/10/19 04:31:50;;;;;;;25.97;12.17;;;;;;;8.75;100.00;97598.59;10374052;28;20213;-62
2022/10/19 04:36:52;;;;;;;22.67;11.37;;;;;;;8.74;100.00;97587.31;10373440;28;20217;-62
2022/10/19 04:41:52;;;;;;;25.30;12.93;;;;;;;8.77;100.00;97599.28;10373448;28;20224;-62
2022/10/19 04:46:52;;;;;;;30.03;12.00;;;;;;;8.82;100.00;97607.59;10373661;28;20200;-62
2022/10/19 04:51:53;;;;;;;25.00;14.73;;;;;;;8.73;100.00;97603.13;10373144;28;20220;-62
2022/10/19 04:56:53;;;;;;;29.33;14.30;;;;;;;8.69;100.00;97610.34;10372840;28;20821;-62
2022/10/19 05:01:53;;;;;;;28.60;14.50;;;;;;;8.56;100.00;97609.69;10372623;28;20209;-61
2022/10/19 05:06:54;;;;;;;31.67;14.50;;;;;;;8.40;100.00;97612.63;10372278;28;20190;-62
2022/10/19 05:11:54;;;;;;;25.03;13.40;;;;;;;8.30;100.00;97599.47;10372258;28;20224;-62
2022/10/19 05:16:54;;;;;;;28.97;12.97;;;;;;;8.19;100.00;97609.91;10371743;28;20275;-62
2022/10/19 05:21:55;;;;;;;32.00;14.20;;;;;;;8.01;100.00;97613.00;10371866;28;20602;-62
2022/10/19 05:26:55;;;;;;;34.70;14.73;;;;;;;8.02;100.00;97619.03;10401006;28;20614;-61
2022/10/19 05:31:56;;;;;;;35.63;14.43;;;;;;;8.01;100.00;97620.00;10412431;28;20303;-63
2022/10/19 05:36:56;;;;;;;27.50;14.17;;;;;;;8.03;100.00;97634.56;10412214;28;20320;-62
2022/10/19 05:41:57;;;;;;;26.07;13.27;;;;;;;8.06;100.00;97632.69;10412160;28;20212;-61
2022/10/19 05:46:57;;;;;;;32.03;12.80;;;;;;;8.07;100.00;97629.97;10411767;28;20293;-62
2022/10/19 05:51:57;;;;;;;31.33;12.37;;;;;;;8.13;100.00;97632.13;10411867;28;20215;-61
2022/10/19 05:56:58;;;;;;;28.47;13.33;;;;;;;8.14;100.00;97638.16;10411225;28;20224;-61
2022/10/19 06:01:58;;;;;;;19.53;11.30;;;;;;;8.24;100.00;97640.88;10371519;28;20708;-63
2022/10/19 06:06:59;;;;;;;25.33;11.73;;;;;;;8.20;100.00;97635.88;10370169;28;20355;-61
2022/10/19 06:12:00;;;;;;;30.33;10.37;;;;;;;8.36;100.00;97632.09;10369829;28;20212;-63
2022/10/19 06:17:00;;;;;;;20.63;9.83;;;;;;;8.33;100.00;97643.63;10351276;28;20217;-63
2022/10/19 06:22:00;;;;;;;18.27;9.07;;;;;;;8.39;100.00;97644.91;10369238;28;20313;-63
2022/10/19 06:27:01;;;;;;;21.70;7.30;;;;;;;8.47;100.00;97645.19;10369370;28;20201;-62
2022/10/19 06:32:01;;;;;;;18.33;8.00;;;;;;;8.49;100.00;97651.09;10369252;28;20592;-62
2022/10/19 06:37:02;;;;;;;22.43;8.07;;;;;;;8.51;100.00;97643.16;10369045;28;20802;-64
2022/10/19 06:42:02;;;;;;;18.90;8.27;;;;;;;8.60;100.00;97642.41;10369568;28;20271;-63
2022/10/19 06:47:02;;;;;;;19.20;6.47;;;;;;;8.68;100.00;97631.38;10369017;28;20199;-63
2022/10/19 06:52:04;;;;;;;15.63;6.47;;;;;;;8.75;100.00;97629.94;10369274;28;20220;-64
2022/10/19 06:57:34;;;;;;;15.00;5.97;;;;;;;8.85;100.00;97643.09;10360577;28;20642;-64
2022/10/19 07:02:35;;;;;;;14.37;5.50;;;;;;;8.82;100.00;97646.78;10365548;28;20601;-64
2022/10/19 07:07:35;;;;;;;13.33;5.77;;;;;;;9.01;100.00;97647.94;10365968;28;20197;-63
2022/10/19 07:12:35;;;;;;;20.53;6.17;;;;;;;9.04;100.00;97648.50;10365739;28;20213;-60
2022/10/19 07:17:36;;;;;;;11.17;5.90;;;;;;;9.36;100.00;97639.84;10365967;28;20239;-63
2022/10/19 07:22:36;;;;;;;11.07;5.07;;;;;;;9.52;100.00;97630.72;10364939;28;20228;-63
2022/10/19 07:27:39;;;;;;;17.37;5.23;;;;;;;9.66;100.00;97625.16;10370989;28;20717;-62
2022/10/19 07:32:39;;;;;;;15.57;4.30;;;;;;;9.63;100.00;97631.50;10410057;28;20220;-63
2022/10/19 07:37:40;;;;;;;11.73;4.63;;;;;;;9.76;100.00;97639.13;10415407;28;20224;-62
2022/10/19 07:42:40;;;;;;;7.13;4.15;;;;;;;9.72;100.00;97634.28;10414951;28;20621;-62
2022/10/19 07:47:40;;;;;;;12.17;4.03;;;;;;;9.72;100.00;97648.19;10414037;28;20196;-61
2022/10/19 07:52:41;;;;;;;11.63;4.10;;;;;;;9.76;100.00;97641.75;10411074;28;20227;-62
2022/10/19 07:57:41;;;;;;;10.10;3.73;;;;;;;9.77;100.00;97643.44;10412835;28;20713;-63
2022/10/19 08:09:14;;;;;;;7.27;2.77;;;;;;;10.17;100.00;97634.00;10379028;28;20196;-63
2022/10/19 08:14:14;;;;;;;9.35;2.90;;;;;;;10.16;100.00;97632.31;10404679;28;20212;-63
2022/10/19 08:19:15;;;;;;;5.20;2.85;;;;;;;10.43;100.00;97638.78;10370564;28;20283;-62
2022/10/19 08:24:17;;;;;;;9.23;2.72;;;;;;;10.55;100.00;97631.66;10371935;28;20233;-63
2022/10/19 08:29:19;;;;;;;4.30;2.53;;;;;;;10.33;100.00;97644.81;10372417;28;20627;-62
2022/10/19 08:34:25;;;;;;;8.88;3.00;;;;;;;9.74;100.00;97642.84;10371965;28;20232;-62
2022/10/19 08:39:30;;;;;;;13.13;3.17;;;;;;;10.19;100.00;97639.91;10354622;28;20940;-63
2022/10/19 08:44:57;;;;;;;15.15;5.20;;;;;;;10.05;100.00;97650.75;10370784;28;20201;-63
2022/10/19 08:49:57;;;;;;;8.05;2.15;;;;;;;9.91;100.00;97634.41;10369059;28;20200;-61
2022/10/19 08:55:03;;;;;;;12.38;3.67;;;;;;;9.85;100.00;97645.41;10366981;28;20591;-63
2022/10/19 09:00:10;;;;;;;10.13;3.47;;;;;;;9.51;100.00;97645.59;10353719;28;20193;-63
2022/10/19 09:05:19;;;;;;;10.23;3.87;;;;;;;9.39;100.00;97649.22;10338902;28;20220;-62
2022/10/19 09:10:29;;;;;;;14.63;4.13;;;;;;;9.23;100.00;97654.84;10352167;28;20590;-61
2022/10/19 09:15:38;;;;;;;11.27;4.13;;;;;;;9.01;100.00;97655.78;10343492;28;20225;-60
2022/10/19 09:20:42;;;;;;;8.17;4.53;;;;;;;9.19;100.00;97664.75;10367550;28;20241;-60
2022/10/19 09:25:42;;;;;;;6.00;3.07;;;;;;;9.26;100.00;97655.44;10363994;28;20279;-61
2022/10/19 09:30:44;;;;;;;10.45;3.38;;;;;;;9.57;100.00;97657.31;10369467;28;20300;-61
2022/10/19 09:35:45;;;;;;;10.20;3.20;;;;;;;9.64;100.00;97658.47;10352402;28;20217;-61
2022/10/19 09:40:45;;;;;;;9.40;3.80;;;;;;;9.57;100.00;97652.09;10366995;28;20560;-61
2022/10/19 09:45:52;;;;;;;6.50;2.70;;;;;;;9.51;100.00;97657.81;10368553;28;20189;-61
2022/10/19 09:50:59;;;;;;;8.80;2.73;;;;;;;9.46;100.00;97652.97;10369497;28;20224;-62
2022/10/19 09:56:05;;;;;;;10.20;3.07;;;;;;;9.47;100.00;97659.88;10367571;28;20664;-61
2022/10/19 10:01:05;;;;;;;10.90;3.70;;;;;;;9.60;100.00;97654.44;10367690;28;20259;-62
2022/10/19 10:06:08;;;;;;;5.15;2.47;;;;;;;10.04;100.00;97646.47;10368537;28;20275;-61
2022/10/19 10:11:15;;;;;;;10.73;2.67;;;;;;;10.33;100.00;97638.75;10357624;28;20215;-63
2022/10/19 10:16:17;;;;;;;9.10;1.60;;;;;;;10.62;100.00;97633.63;10384618;28;20217;-62
2022/10/19 10:21:32;;;;;;;4.05;1.40;;;;;;;11.10;100.00;97597.94;10350166;28;20575;-62
2022/10/19 10:26:38;;;;;;;1.80;0.90;;;;;;;11.17;95.52;97578.06;10420668;22;20755;-74
2022/10/19 10:31:40;;;;;;;0.93;0.60;;;;;;;11.06;88.89;97529.22;10448615;28;20755;-74
2022/10/19 10:36:41;;;;;;;1.58;0.73;;;;;;;11.29;87.59;97538.59;10446931;28;20228;-74
2022/10/19 10:41:42;;;;;;;2.67;1.40;;;;;;;11.06;89.71;97565.94;10446918;28;20528;-74
2022/10/19 10:46:50;;;;;;;1.65;0.82;;;;;;;11.35;88.97;97572.97;10432782;28;20506;-73
2022/10/19 10:51:54;;;;;;;3.95;1.17;;;;;;;10.72;94.00;97599.59;10419195;28;20192;-72
2022/10/19 10:57:11;;;;;;;2.30;1.00;;;;;;;10.57;97.09;97614.84;10443073;28;20223;-72
2022/10/19 11:02:14;;;;;;;4.03;1.30;;;;;;;10.49;96.35;97614.69;10452438;28;20286;-73
2022/10/19 11:07:17;;;;;;;3.22;0.98;;;;;;;10.46;94.05;97600.06;10462224;28;20202;-72
2022/10/19 11:12:23;;;;;;;5.97;0.85;;;;;;;10.43;95.33;97609.97;10447136;28;20648;-73
2022/10/19 11:17:29;;;;;;;6.32;1.35;;;;;;;10.53;95.78;97618.69;10447499;28;20215;-73
2022/10/19 11:22:45;;;;;;;3.97;0.90;;;;;;;10.33;96.22;97620.44;10450166;28;20253;-73
2022/10/19 11:27:48;;;;;;;2.53;0.85;;;;;;;10.16;95.75;97608.75;10488369;28;20949;-72
2022/10/19 11:33:05;;;;;;;2.05;0.93;;;;;;;10.55;95.11;97592.38;10489230;28;20616;-73
2022/10/19 11:38:32;;;;;;;3.17;1.90;;;;;;;10.40;95.67;97592.75;10487948;28;20242;-73
2022/10/19 11:44:12;;;;;;;3.70;1.35;;;;;;;10.37;95.94;97603.50;10488252;28;20195;-74
2022/10/19 11:49:30;;;;;;;5.80;1.10;;;;;;;10.34;97.57;97614.25;10456936;28;20217;-73
2022/10/19 11:54:51;;;;;;;4.22;0.95;;;;;;;10.90;92.29;97573.50;10447947;28;20629;-73
2022/10/19 12:00:08;;;;;;;2.42;1.13;;;;;;;11.35;90.12;97570.34;10447902;28;20578;-73
2022/10/19 12:05:13;;;;;;;9.38;1.45;;;;;;;11.04;90.79;97564.41;10446770;28;20894;-72
2022/10/19 12:10:19;;;;;;;3.65;1.23;;;;;;;10.78;91.81;97569.38;10448054;28;20283;-74
2022/10/19 12:15:25;;;;;;;1.52;0.98;;;;;;;11.02;91.97;97571.59;10452714;28;20359;-73
2022/10/19 12:20:31;;;;;;;4.32;1.40;;;;;;;10.37;98.19;97618.38;10455216;28;20223;-73
2022/10/19 12:25:32;;;;;;;5.35;1.45;;;;;;;10.70;97.88;97599.72;10453204;28;20231;-73
2022/10/19 12:30:32;;;;;;;3.90;1.27;;;;;;;10.87;95.98;97568.53;10453460;28;20191;-72
2022/10/19 12:36:00;;;;;;;8.40;1.20;;;;;;;10.45;94.78;97569.59;10451372;28;20219;-73
2022/10/19 12:41:39;;;;;;;4.65;1.10;;;;;;;10.83;92.68;97551.47;10478875;28;20249;-73
2022/10/19 12:46:48;;;;;;;3.45;0.93;;;;;;;11.30;91.30;97567.31;10494287;28;20215;-73
2022/10/19 12:51:49;;;;;;;4.10;1.08;;;;;;;11.43;91.59;97567.81;10476201;28;20282;-72
2022/10/19 12:56:52;;;;;;;4.57;1.00;;;;;;;11.48;89.39;97548.22;10453585;28;20227;-72
2022/10/19 13:01:53;;;;;;;3.25;1.08;;;;;;;10.69;89.91;97539.59;10453391;28;20668;-73
2022/10/19 13:06:56;;;;;;;1.60;1.00;;;;;;;10.22;93.68;97562.91;10454017;28;20192;-73
2022/10/19 13:12:12;;;;;;;2.85;1.63;;;;;;;10.34;95.27;97569.72;10453704;28;20192;-73
2022/10/19 13:17:32;;;;;;;10.68;4.55;;;;;;;10.64;98.36;97584.53;10453216;28;20275;-73
2022/10/19 13:22:33;;;;;;;4.53;1.63;;;;;;;10.72;93.74;97544.56;10452982;28;20570;-73
2022/10/19 13:28:01;;;;;;;4.22;1.17;;;;;;;10.96;89.54;97524.97;10452281;28;20235;-74
2022/10/19 13:33:32;;;;;;;6.30;4.45;;;;;;;10.65;91.85;97549.50;10447349;28;20207;-73
2022/10/19 13:38:41;;;;;;;6.18;1.80;;;;;;;10.50;93.88;97558.72;10452655;28;20230;-73
2022/10/19 13:43:56;;;;;;;6.60;1.90;;;;;;;10.47;91.36;97536.22;10452623;28;20648;-72
2022/10/19 13:49:00;;;;;;;3.58;1.80;;;;;;;10.55;88.47;97519.00;10449410;28;20761;-78
2022/10/19 13:54:09;;;;;;;7.05;2.95;;;;;;;10.77;87.60;97505.66;10452170;28;20264;-79
2022/10/19 13:59:47;;;;;;;9.00;4.95;;;;;;;10.48;86.36;97495.97;10451083;28;20664;-78
2022/10/19 14:05:10;;;;;;;7.53;5.15;;;;;;;10.67;87.54;97516.16;10400619;28;20196;-78
2022/10/19 14:10:19;;;;;;;1.98;1.00;;;;;;;10.53;82.98;97472.84;10490794;28;20195;-78
2022/10/19 14:15:27;;;;;;;1.83;1.02;;;;;;;10.51;83.50;97471.31;10491566;28;20235;-81
2022/10/19 14:20:40;;;;;;;1.45;0.75;;;;;;;10.45;86.37;97506.72;10434517;28;20358;-80
2022/10/19 14:25:48;;;;;;;2.92;1.08;;;;;;;10.12;87.16;97513.94;10435406;28;20234;-79
2022/10/19 14:30:56;;;;;;;3.00;0.85;;;;;;;10.17;85.70;97492.59;10454102;28;20607;-80
2022/10/19 14:35:56;;;;;;;5.63;0.80;;;;;;;9.94;88.16;97521.59;10484940;28;20269;-79
2022/10/19 14:40:57;;;;;;;5.28;1.80;;;;;;;9.82;89.25;97527.91;10449583;28;20261;-80
2022/10/19 14:46:06;;;;;;;2.07;0.90;;;;;;;9.96;86.41;97493.50;10454777;28;20603;-79
2022/10/19 14:51:27;;;;;;;4.03;2.45;;;;;;;9.82;88.56;97525.28;10449075;28;20230;-80
2022/10/19 14:56:34;;;;;;;2.20;1.90;;;;;;;9.81;90.95;97544.53;10435637;28;20663;-80
2022/10/19 15:01:35;;;;;;;4.07;1.88;;;;;;;9.92;89.90;97527.91;10450483;28;20204;-79
2022/10/19 15:06:41;;;;;;;3.42;1.65;;;;;;;9.68;91.65;97536.06;10450920;28;20536;-78
2022/10/19 15:11:43;;;;;;;1.77;1.00;;;;;;;9.53;89.20;97506.84;10451265;28;20195;-78
2022/10/19 15:16:50;;;;;;;2.38;0.77;;;;;;;9.70;86.50;97474.00;10450635;28;20227;-78
2022/10/19 15:22:18;;;;;;;1.83;1.05;;;;;;;9.54;86.40;97474.47;10449777;28;20270;-79
2022/10/19 15:27:21;;;;;;;1.30;1.20;;;;;;;9.49;85.67;97487.94;10451417;28;20327;-78
2022/10/19 15:32:23;;;;;;;0.90;0.90;;;;;;;9.35;86.25;97496.97;10470962;28;20195;-77
2022/10/19 15:37:24;;;;;;;3.43;0.60;;;;;;;9.32;87.40;97512.09;10508396;28;20211;-78
2022/10/19 15:42:43;;;;;;;2.80;1.30;;;;;;;9.09;88.34;97517.44;10505564;28;20196;-78
2022/10/19 15:48:23;;;;;;;1.70;1.00;;;;;;;9.02;89.32;97514.50;10453873;28;20298;-78
2022/10/19 15:53:24;;;;;;;5.43;1.33;;;;;;;8.86;91.22;97532.41;10469802;28;20204;-78
2022/10/19 15:58:24;;;;;;;1.10;0.80;;;;;;;8.99;90.53;97511.31;10434616;28;20187;-78
2022/10/19 16:03:24;;;;;;;1.20;0.80;;;;;;;8.87;92.46;97518.41;10445223;28;20266;-78
2022/10/19 16:08:25;;;;;;;203.70;86.83;;;;;;;8.32;90.08;97495.75;10457033;28;20254;-78
2022/10/19 16:13:25;;;;;;;22.00;11.00;;;;;;;8.20;92.18;97515.00;10454861;28;20279;-78
2022/10/19 16:18:26;;;;;;;11.10;3.60;;;;;;;8.40;98.66;97560.41;10490894;28;20285;-78
2022/10/19 16:23:26;;;;;;;5.20;1.87;;;;;;;7.75;100.00;97564.59;10496695;28;20277;-78
2022/10/19 16:35:01;;;;;;;11.43;2.90;;;;;;;6.71;100.00;97580.06;10457124;28;20298;-79
2022/10/19 16:40:04;;;;;;;6.87;2.43;;;;;;;6.89;100.00;97577.91;10456329;28;20283;-78
2022/10/19 16:45:04;;;;;;;3.37;1.70;;;;;;;6.71;100.00;97571.44;10456367;28;20212;-78
2022/10/19 16:50:05;;;;;;;4.80;2.90;;;;;;;5.71;100.00;97581.81;10456261;28;20282;-78
2022/10/19 17:01:19;;;;;;;11.67;8.87;;;;;;;5.34;100.00;97589.50;10455382;28;20203;-78
2022/10/19 17:06:20;;;;;;;7.47;4.37;;;;;;;4.90;100.00;97599.28;10454091;28;20688;-78
2022/10/19 17:11:22;;;;;;;3.43;2.90;;;;;;;4.82;100.00;97604.97;10453788;28;20249;-76
2022/10/19 17:16:24;;;;;;;9.50;1.90;;;;;;;4.44;100.00;97620.34;10455049;28;20192;-77
2022/10/19 17:21:27;;;;;;;4.63;2.03;;;;;;;4.32;100.00;97611.56;10447541;28;20292;-77
2022/10/19 17:26:34;;;;;;;10.20;5.80;;;;;;;4.43;100.00;97616.09;10431246;28;20608;-77
2022/10/19 17:31:35;;;;;;;11.97;6.37;;;;;;;4.14;100.00;97628.28;10430450;28;20205;-76
2022/10/19 17:36:39;;;;;;;8.93;3.60;;;;;;;4.05;100.00;97629.66;10413794;28;20753;-77
2022/10/19 17:41:39;;;;;;;10.80;3.93;;;;;;;4.01;100.00;97636.78;10411244;28;20677;-78
2022/10/19 17:46:40;;;;;;;7.70;5.47;;;;;;;3.99;100.00;97648.19;10480403;28;20215;-76
2022/10/19 17:51:40;;;;;;;12.37;3.53;;;;;;;3.98;100.00;97644.75;10494753;28;20195;-77
2022/10/19 17:56:43;;;;;;;6.50;2.30;;;;;;;3.96;100.00;97646.59;10491227;28;20194;-77
2022/10/19 18:01:44;;;;;;;4.53;2.30;;;;;;;4.01;100.00;97651.50;10492151;28;20548;-77
2022/10/19 18:06:44;;;;;;;4.57;2.77;;;;;;;3.97;100.00;97655.22;10458988;28;20219;-77
2022/10/19 18:11:45;;;;;;;5.60;2.40;;;;;;;3.82;100.00;97665.56;10430453;28;20225;-77
2022/10/19 18:16:45;;;;;;;5.90;2.17;;;;;;;3.74;100.00;97660.00;10431687;28;20219;-77
2022/10/19 18:21:46;;;;;;;4.80;2.23;;;;;;;3.71;100.00;97663.59;10470159;28;20203;-77
2022/10/19 18:26:47;;;;;;;3.73;2.50;;;;;;;3.55;100.00;97657.63;10453117;28;20239;-77
2022/10/19 18:31:51;;;;;;;8.10;2.83;;;;;;;3.39;100.00;97662.88;10449951;28;20265;-76
2022/10/19 18:36:52;;;;;;;5.80;3.23;;;;;;;3.29;100.00;97661.75;10447950;28;20223;-77
2022/10/19 18:41:55;;;;;;;4.63;3.20;;;;;;;3.20;100.00;97657.91;10447598;28;20719;-78
2022/10/19 18:46:56;;;;;;;9.40;3.23;;;;;;;3.16;100.00;97654.66;10447090;28;20481;-77
2022/10/19 18:51:56;;;;;;;4.03;2.70;;;;;;;3.10;100.00;97642.06;10447213;28;20643;-77
2022/10/19 18:56:57;;;;;;;7.27;3.40;;;;;;;2.96;100.00;97636.84;10446312;28;20266;-77
2022/10/19 19:01:57;;;;;;;5.10;2.63;;;;;;;2.92;100.00;97638.75;10447317;28;20199;-78
2022/10/19 19:06:57;;;;;;;6.93;2.73;;;;;;;2.84;100.00;97631.41;10449007;28;20223;-77
2022/10/19 19:11:58;;;;;;;5.00;2.30;;;;;;;2.74;100.00;97625.13;10434913;28;20228;-76
2022/10/19 19:16:59;;;;;;;8.17;2.23;;;;;;;2.76;100.00;97631.03;10450809;28;20222;-77
2022/10/19 19:28:12;;;;;;;4.40;1.90;;;;;;;2.63;100.00;97623.13;10440721;28;20686;-77
2022/10/19 19:33:13;;;;;;;6.13;2.30;;;;;;;2.56;100.00;97614.03;10457040;28;20188;-77
2022/10/19 19:38:14;;;;;;;6.43;2.30;;;;;;;2.53;100.00;97621.94;10438010;28;20766;-77
2022/10/19 19:49:17;;;;;;;4.83;1.53;;;;;;;2.43;100.00;97636.28;10414105;28;20209;-77
2022/10/19 19:54:19;;;;;;;3.90;2.40;;;;;;;2.28;100.00;97630.19;10418251;28;20189;-77
2022/10/19 19:59:19;;;;;;;3.60;1.90;;;;;;;2.35;100.00;97630.72;10414928;28;20279;-77
2022/10/19 20:04:20;;;;;;;11.43;2.73;;;;;;;2.24;100.00;97626.94;10415500;28;20205;-78
2022/10/19 20:09:20;;;;;;;4.50;2.17;;;;;;;2.20;100.00;97640.94;10416780;28;20266;-77
2022/10/19 20:14:20;;;;;;;5.70;2.20;;;;;;;2.17;100.00;97643.69;10453307;28;20192;-77
2022/10/19 20:19:21;;;;;;;3.67;2.13;;;;;;;2.09;100.00;97641.50;10529906;28;20179;-77
2022/10/19 20:24:21;;;;;;;3.00;2.17;;;;;;;1.99;100.00;97648.09;10540406;28;20203;-76
2022/10/19 20:29:21;;;;;;;5.13;2.40;;;;;;;1.95;100.00;97651.72;10498693;28;20261;-76
2022/10/19 20:34:22;;;;;;;7.30;2.70;;;;;;;1.92;100.00;97651.88;10496398;28;20187;-77
2022/10/19 20:39:22;;;;;;;2.20;2.00;;;;;;;1.85;100.00;97651.34;10494465;28;20217;-77
2022/10/19 20:44:23;;;;;;;5.37;1.90;;;;;;;1.82;100.00;97648.09;10498972;28;20678;-76
2022/10/19 20:49:23;;;;;;;3.23;1.83;;;;;;;1.80;100.00;97647.34;10496627;28;20183;-77
2022/10/19 20:54:23;;;;;;;2.00;1.80;;;;;;;1.73;100.00;97650.25;10497435;28;20229;-78
2022/10/19 20:59:26;;;;;;;6.57;2.10;;;;;;;1.76;100.00;97646.66;10497019;28;20719;-76
2022/10/19 21:04:27;;;;;;;3.07;1.97;;;;;;;1.70;100.00;97647.84;10495054;28;20222;-77
2022/10/19 21:09:27;;;;;;;2.87;1.90;;;;;;;1.72;100.00;97646.00;10495194;28;20716;-77
2022/10/19 21:14:28;;;;;;;3.30;2.13;;;;;;;1.62;100.00;97639.63;10492813;28;20838;-76
2022/10/19 21:19:29;;;;;;;2.60;1.93;;;;;;;1.55;100.00;97646.84;10490491;28;20233;-76
2022/10/19 21:24:32;;;;;;;3.83;2.10;;;;;;;1.42;100.00;97644.06;10491384;28;20705;-77
2022/10/19 21:29:33;;;;;;;3.23;1.90;;;;;;;1.50;100.00;97632.50;10492757;28;20239;-77
2022/10/19 21:34:34;;;;;;;2.63;2.13;;;;;;;1.58;100.00;97638.94;10491327;28;20191;-77
2022/10/19 21:39:35;;;;;;;4.00;1.90;;;;;;;1.52;100.00;97631.50;10490634;28;20218;-77
2022/10/19 21:44:35;;;;;;;3.83;1.90;;;;;;;1.43;100.00;97627.63;10490817;28;20584;-76
2022/10/19 21:49:36;;;;;;;7.57;2.27;;;;;;;1.34;100.00;97617.78;10491194;28;20198;-78
2022/10/19 21:54:36;;;;;;;5.07;3.00;;;;;;;1.34;100.00;97619.53;10495676;28;20252;-76
2022/10/19 21:59:37;;;;;;;2.40;2.20;;;;;;;1.37;100.00;97620.19;10494022;28;20546;-77
2022/10/19 22:04:38;;;;;;;3.17;2.37;;;;;;;1.36;100.00;97610.81;10494744;28;20223;-76
2022/10/19 22:09:38;;;;;;;4.23;2.30;;;;;;;1.36;100.00;97615.97;10494302;28;20191;-77
2022/10/19 22:14:38;;;;;;;4.70;1.90;;;;;;;1.23;100.00;97607.16;10494246;28;20187;-77
2022/10/19 22:19:39;;;;;;;3.50;1.90;;;;;;;1.22;100.00;97592.56;10492872;28;20662;-78
2022/10/19 22:24:39;;;;;;;4.23;1.57;;;;;;;1.18;100.00;97583.31;10494716;28;20223;-77
2022/10/19 22:29:39;;;;;;;3.07;1.93;;;;;;;1.18;100.00;97575.56;10482233;28;20242;-78
2022/10/19 22:34:40;;;;;;;5.50;2.30;;;;;;;1.17;100.00;97572.16;10450735;28;20279;-77
2022/10/19 22:39:40;;;;;;;4.37;1.93;;;;;;;1.17;100.00;97573.91;10449181;28;20558;-75
2022/10/19 22:44:40;;;;;;;2.53;1.90;;;;;;;1.26;100.00;97573.44;10449158;28;20223;-74
2022/10/19 22:49:41;;;;;;;7.27;1.97;;;;;;;1.21;100.00;97572.84;10450292;28;20196;-75
2022/10/19 22:54:42;;;;;;;14.37;2.60;;;;;;;1.21;100.00;97568.53;10449786;28;20207;-75
2022/10/19 22:59:42;;;;;;;6.33;2.30;;;;;;;1.25;100.00;97564.03;10448710;28;20230;-75
2022/10/19 23:04:42;;;;;;;6.03;1.50;;;;;;;1.29;100.00;97565.56;10449515;28;20216;-75
2022/10/19 23:09:43;;;;;;;4.20;1.80;;;;;;;1.29;100.00;97562.97;10449218;28;20188;-74
2022/10/19 23:14:43;;;;;;;2.10;1.80;;;;;;;1.23;100.00;97558.13;10449914;28;20715;-75
2022/10/19 23:19:43;;;;;;;10.40;2.17;;;;;;;1.19;100.00;97559.19;10448607;28;20671;-75
2022/10/19 23:24:44;;;;;;;4.03;2.50;;;;;;;0.96;100.00;97558.56;10449854;28;20645;-75
2022/10/19 23:29:44;;;;;;;3.53;2.13;;;;;;;0.83;100.00;97552.38;10448707;28;20258;-75
2022/10/19 23:34:44;;;;;;;2.70;1.93;;;;;;;0.84;100.00;97554.88;10449431;28;20192;-75
2022/10/19 23:39:45;;;;;;;3.83;2.30;;;;;;;0.77;100.00;97558.66;10448816;28;20212;-75
2022/10/19 23:44:45;;;;;;;4.33;1.67;;;;;;;0.79;100.00;97561.97;10448265;28;20695;-75
2022/10/19 23:49:45;;;;;;;2.13;1.90;;;;;;;0.82;100.00;97550.69;10448200;28;20790;-75
2022/10/19 23:54:46;;;;;;;4.50;2.10;;;;;;;0.80;100.00;97532.72;10448282;28;20541;-75